sensor_id;sensor_type;location;lat;lon;timestamp;P1;durP1;ratioP1;P2;durP2;ratioP2
68192;SDS011;55012;47.562;18.414;2022-10-16T00:01:21;19.10;;;10.40;;
68192;SDS011;55012;47.562;18.414;2022-10-16T00:03:49;20.90;;;11.13;;
68192;SDS011;55012;47.562;18.414;2022-10-16T00:06:15;17.80;;;10.07;;
68192;SDS011;55012;47.562;18.414;2022-10-16T00:08:42;20.48;;;10.25;;
68192;SDS011;55012;47.562;18.414;2022-10-16T00:11:15;16.70;;;10.20;;
68192;SDS011;55012;47.562;18.414;2022-10-16T00:13:46;20.80;;;10.27;;
68192;SDS011;55012;47.562;18.414;2022-10-16T00:16:14;20.75;;;10.23;;
68192;SDS011;55012;47.562;18.414;2022-10-16T00:18:40;19.63;;;10.77;;
68192;SDS011;55012;47.562;18.414;2022-10-16T00:21:10;21.17;;;12.52;;
68192;SDS011;55012;47.562;18.414;2022-10-16T00:23:38;24.10;;;12.02;;
68192;SDS011;55012;47.562;18.414;2022-10-16T00:26:05;22.90;;;11.75;;
68192;SDS011;55012;47.562;18.414;2022-10-16T00:28:33;28.55;;;12.32;;
68192;SDS011;55012;47.562;18.414;2022-10-16T00:31:02;23.58;;;12.18;;
68192;SDS011;55012;47.562;18.414;2022-10-16T00:33:32;23.98;;;12.43;;
68192;SDS011;55012;47.562;18.414;2022-10-16T00:35:58;23.67;;;11.77;;
68192;SDS011;55012;47.562;18.414;2022-10-16T00:38:24;23.60;;;12.00;;
68192;SDS011;55012;47.562;18.414;2022-10-16T00:40:50;21.75;;;11.38;;
68192;SDS011;55012;47.562;18.414;2022-10-16T00:46:18;25.17;;;11.73;;
68192;SDS011;55012;47.562;18.414;2022-10-16T00:48:46;19.02;;;10.73;;
68192;SDS011;55012;47.562;18.414;2022-10-16T00:51:16;22.63;;;10.90;;
68192;SDS011;55012;47.562;18.414;2022-10-16T00:53:44;21.95;;;11.27;;
68192;SDS011;55012;47.562;18.414;2022-10-16T00:56:10;24.85;;;12.32;;
68192;SDS011;55012;47.562;18.414;2022-10-16T00:58:36;24.08;;;12.55;;
68192;SDS011;55012;47.562;18.414;2022-10-16T01:01:01;31.85;;;15.00;;
68192;SDS011;55012;47.562;18.414;2022-10-16T01:11:38;18.52;;;10.93;;
68192;SDS011;55012;47.562;18.414;2022-10-16T01:14:32;19.48;;;11.05;;
68192;SDS011;55012;47.562;18.414;2022-10-16T01:22:14;19.90;;;11.05;;
68192;SDS011;55012;47.562;18.414;2022-10-16T01:24:44;20.42;;;10.60;;
68192;SDS011;55012;47.562;18.414;2022-10-16T01:27:14;23.55;;;11.15;;
68192;SDS011;55012;47.562;18.414;2022-10-16T01:29:59;21.63;;;11.00;;
68192;SDS011;55012;47.562;18.414;2022-10-16T01:32:40;18.05;;;10.75;;
68192;SDS011;55012;47.562;18.414;2022-10-16T01:35:11;23.83;;;11.60;;
68192;SDS011;55012;47.562;18.414;2022-10-16T01:40:14;23.10;;;11.75;;
68192;SDS011;55012;47.562;18.414;2022-10-16T01:42:52;22.40;;;12.40;;
68192;SDS011;55012;47.562;18.414;2022-10-16T01:45:22;26.92;;;12.68;;
68192;SDS011;55012;47.562;18.414;2022-10-16T01:47:47;24.15;;;12.73;;
68192;SDS011;55012;47.562;18.414;2022-10-16T01:50:17;22.27;;;12.32;;
68192;SDS011;55012;47.562;18.414;2022-10-16T01:52:46;24.00;;;11.82;;
68192;SDS011;55012;47.562;18.414;2022-10-16T01:55:18;22.55;;;12.13;;
68192;SDS011;55012;47.562;18.414;2022-10-16T01:57:49;26.77;;;12.45;;
68192;SDS011;55012;47.562;18.414;2022-10-16T02:00:19;22.90;;;11.93;;
68192;SDS011;55012;47.562;18.414;2022-10-16T02:02:48;20.65;;;11.80;;
68192;SDS011;55012;47.562;18.414;2022-10-16T02:05:27;21.48;;;11.30;;
68192;SDS011;55012;47.562;18.414;2022-10-16T02:07:57;23.90;;;11.82;;
68192;SDS011;55012;47.562;18.414;2022-10-16T02:10:23;20.75;;;12.20;;
68192;SDS011;55012;47.562;18.414;2022-10-16T02:13:00;18.52;;;11.73;;
68192;SDS011;55012;47.562;18.414;2022-10-16T02:15:32;22.80;;;11.48;;
68192;SDS011;55012;47.562;18.414;2022-10-16T02:17:57;25.02;;;11.57;;
68192;SDS011;55012;47.562;18.414;2022-10-16T02:20:25;21.02;;;11.35;;
68192;SDS011;55012;47.562;18.414;2022-10-16T02:22:53;22.42;;;11.82;;
68192;SDS011;55012;47.562;18.414;2022-10-16T02:25:29;22.50;;;11.52;;
68192;SDS011;55012;47.562;18.414;2022-10-16T02:33:12;19.70;;;11.82;;
68192;SDS011;55012;47.562;18.414;2022-10-16T02:35:39;20.92;;;11.32;;
68192;SDS011;55012;47.562;18.414;2022-10-16T02:38:06;19.75;;;11.27;;
68192;SDS011;55012;47.562;18.414;2022-10-16T02:40:33;22.95;;;12.05;;
68192;SDS011;55012;47.562;18.414;2022-10-16T02:42:59;22.15;;;10.68;;
68192;SDS011;55012;47.562;18.414;2022-10-16T02:45:25;22.73;;;11.50;;
68192;SDS011;55012;47.562;18.414;2022-10-16T02:47:50;21.23;;;11.60;;
68192;SDS011;55012;47.562;18.414;2022-10-16T02:50:16;23.83;;;11.55;;
68192;SDS011;55012;47.562;18.414;2022-10-16T02:52:42;22.08;;;11.07;;
68192;SDS011;55012;47.562;18.414;2022-10-16T02:55:07;19.83;;;11.02;;
68192;SDS011;55012;47.562;18.414;2022-10-16T02:57:33;20.83;;;11.23;;
68192;SDS011;55012;47.562;18.414;2022-10-16T02:59:58;22.08;;;10.63;;
68192;SDS011;55012;47.562;18.414;2022-10-16T03:02:24;22.75;;;10.63;;
68192;SDS011;55012;47.562;18.414;2022-10-16T03:04:50;25.88;;;11.60;;
68192;SDS011;55012;47.562;18.414;2022-10-16T03:07:16;20.60;;;10.48;;
68192;SDS011;55012;47.562;18.414;2022-10-16T03:09:41;21.10;;;10.73;;
68192;SDS011;55012;47.562;18.414;2022-10-16T03:12:07;20.58;;;11.02;;
68192;SDS011;55012;47.562;18.414;2022-10-16T03:14:33;18.25;;;10.43;;
68192;SDS011;55012;47.562;18.414;2022-10-16T03:16:58;21.30;;;11.10;;
68192;SDS011;55012;47.562;18.414;2022-10-16T03:19:24;19.45;;;11.07;;
68192;SDS011;55012;47.562;18.414;2022-10-16T03:21:49;21.42;;;11.07;;
68192;SDS011;55012;47.562;18.414;2022-10-16T03:24:15;21.52;;;10.48;;
68192;SDS011;55012;47.562;18.414;2022-10-16T03:26:40;19.10;;;10.32;;
68192;SDS011;55012;47.562;18.414;2022-10-16T03:29:06;20.92;;;11.05;;
68192;SDS011;55012;47.562;18.414;2022-10-16T03:31:31;18.50;;;10.02;;
68192;SDS011;55012;47.562;18.414;2022-10-16T03:33:57;21.55;;;10.50;;
68192;SDS011;55012;47.562;18.414;2022-10-16T03:36:23;22.45;;;10.85;;
68192;SDS011;55012;47.562;18.414;2022-10-16T03:38:48;18.55;;;10.35;;
68192;SDS011;55012;47.562;18.414;2022-10-16T03:41:14;19.52;;;10.57;;
68192;SDS011;55012;47.562;18.414;2022-10-16T03:43:39;18.63;;;10.35;;
68192;SDS011;55012;47.562;18.414;2022-10-16T03:46:05;18.70;;;10.40;;
68192;SDS011;55012;47.562;18.414;2022-10-16T03:48:31;20.40;;;10.95;;
68192;SDS011;55012;47.562;18.414;2022-10-16T03:50:57;19.40;;;10.30;;
68192;SDS011;55012;47.562;18.414;2022-10-16T03:53:23;17.95;;;10.63;;
68192;SDS011;55012;47.562;18.414;2022-10-16T03:55:49;23.10;;;10.45;;
68192;SDS011;55012;47.562;18.414;2022-10-16T03:58:14;19.73;;;10.43;;
68192;SDS011;55012;47.562;18.414;2022-10-16T04:00:41;20.02;;;10.85;;
68192;SDS011;55012;47.562;18.414;2022-10-16T04:03:07;19.17;;;10.48;;
68192;SDS011;55012;47.562;18.414;2022-10-16T04:05:32;19.50;;;10.15;;
68192;SDS011;55012;47.562;18.414;2022-10-16T04:07:58;21.95;;;10.55;;
68192;SDS011;55012;47.562;18.414;2022-10-16T04:10:23;19.65;;;10.88;;
68192;SDS011;55012;47.562;18.414;2022-10-16T04:12:48;19.65;;;10.98;;
68192;SDS011;55012;47.562;18.414;2022-10-16T04:15:14;18.67;;;10.48;;
68192;SDS011;55012;47.562;18.414;2022-10-16T04:17:39;19.95;;;10.80;;
68192;SDS011;55012;47.562;18.414;2022-10-16T04:20:05;16.65;;;9.98;;
68192;SDS011;55012;47.562;18.414;2022-10-16T04:22:31;18.08;;;10.32;;
68192;SDS011;55012;47.562;18.414;2022-10-16T04:24:56;21.15;;;10.77;;
68192;SDS011;55012;47.562;18.414;2022-10-16T04:27:22;18.40;;;10.23;;
68192;SDS011;55012;47.562;18.414;2022-10-16T04:29:47;16.95;;;10.15;;
68192;SDS011;55012;47.562;18.414;2022-10-16T04:32:12;17.58;;;10.07;;
68192;SDS011;55012;47.562;18.414;2022-10-16T04:34:39;18.08;;;9.73;;
68192;SDS011;55012;47.562;18.414;2022-10-16T04:37:04;17.75;;;9.63;;
68192;SDS011;55012;47.562;18.414;2022-10-16T04:39:30;17.70;;;10.13;;
68192;SDS011;55012;47.562;18.414;2022-10-16T04:41:56;19.27;;;10.02;;
68192;SDS011;55012;47.562;18.414;2022-10-16T04:44:21;18.45;;;9.70;;
68192;SDS011;55012;47.562;18.414;2022-10-16T04:46:47;18.90;;;10.50;;
68192;SDS011;55012;47.562;18.414;2022-10-16T04:49:12;22.08;;;10.65;;
68192;SDS011;55012;47.562;18.414;2022-10-16T04:51:38;20.48;;;10.73;;
68192;SDS011;55012;47.562;18.414;2022-10-16T04:54:03;24.75;;;12.55;;
68192;SDS011;55012;47.562;18.414;2022-10-16T04:56:29;21.45;;;12.00;;
68192;SDS011;55012;47.562;18.414;2022-10-16T04:58:54;25.77;;;12.80;;
68192;SDS011;55012;47.562;18.414;2022-10-16T05:01:19;30.67;;;14.73;;
68192;SDS011;55012;47.562;18.414;2022-10-16T05:03:45;28.98;;;14.15;;
68192;SDS011;55012;47.562;18.414;2022-10-16T05:06:10;35.85;;;16.67;;
68192;SDS011;55012;47.562;18.414;2022-10-16T05:08:36;36.42;;;18.13;;
68192;SDS011;55012;47.562;18.414;2022-10-16T05:11:01;36.78;;;16.40;;
68192;SDS011;55012;47.562;18.414;2022-10-16T05:13:27;33.10;;;16.08;;
68192;SDS011;55012;47.562;18.414;2022-10-16T05:15:52;34.80;;;17.80;;
68192;SDS011;55012;47.562;18.414;2022-10-16T05:18:18;36.67;;;18.85;;
68192;SDS011;55012;47.562;18.414;2022-10-16T05:20:43;35.70;;;17.20;;
68192;SDS011;55012;47.562;18.414;2022-10-16T05:23:09;32.65;;;15.50;;
68192;SDS011;55012;47.562;18.414;2022-10-16T05:25:37;28.17;;;14.15;;
68192;SDS011;55012;47.562;18.414;2022-10-16T05:28:03;29.15;;;14.30;;
68192;SDS011;55012;47.562;18.414;2022-10-16T05:30:29;25.10;;;11.82;;
68192;SDS011;55012;47.562;18.414;2022-10-16T05:32:54;21.48;;;11.43;;
68192;SDS011;55012;47.562;18.414;2022-10-16T05:35:20;20.30;;;9.80;;
68192;SDS011;55012;47.562;18.414;2022-10-16T05:37:46;20.00;;;10.10;;
68192;SDS011;55012;47.562;18.414;2022-10-16T05:40:12;16.52;;;9.68;;
68192;SDS011;55012;47.562;18.414;2022-10-16T05:42:38;18.75;;;9.63;;
68192;SDS011;55012;47.562;18.414;2022-10-16T05:45:05;18.85;;;10.00;;
68192;SDS011;55012;47.562;18.414;2022-10-16T05:47:31;17.15;;;9.25;;
68192;SDS011;55012;47.562;18.414;2022-10-16T05:49:56;18.42;;;9.50;;
68192;SDS011;55012;47.562;18.414;2022-10-16T05:52:22;18.05;;;9.98;;
68192;SDS011;55012;47.562;18.414;2022-10-16T05:54:47;15.43;;;9.07;;
68192;SDS011;55012;47.562;18.414;2022-10-16T05:57:13;16.98;;;9.25;;
68192;SDS011;55012;47.562;18.414;2022-10-16T05:59:38;17.05;;;8.85;;
68192;SDS011;55012;47.562;18.414;2022-10-16T06:02:04;18.23;;;9.40;;
68192;SDS011;55012;47.562;18.414;2022-10-16T06:04:29;16.27;;;9.30;;
68192;SDS011;55012;47.562;18.414;2022-10-16T06:06:57;17.23;;;9.85;;
68192;SDS011;55012;47.562;18.414;2022-10-16T06:09:25;17.42;;;9.55;;
68192;SDS011;55012;47.562;18.414;2022-10-16T06:11:50;15.80;;;9.43;;
68192;SDS011;55012;47.562;18.414;2022-10-16T06:14:16;15.88;;;8.80;;
68192;SDS011;55012;47.562;18.414;2022-10-16T06:16:42;17.48;;;9.40;;
68192;SDS011;55012;47.562;18.414;2022-10-16T06:19:07;17.13;;;9.52;;
68192;SDS011;55012;47.562;18.414;2022-10-16T06:21:34;16.58;;;9.18;;
68192;SDS011;55012;47.562;18.414;2022-10-16T06:23:59;17.02;;;8.93;;
68192;SDS011;55012;47.562;18.414;2022-10-16T06:26:26;17.60;;;9.63;;
68192;SDS011;55012;47.562;18.414;2022-10-16T06:28:56;18.50;;;9.85;;
68192;SDS011;55012;47.562;18.414;2022-10-16T06:31:22;15.45;;;9.00;;
68192;SDS011;55012;47.562;18.414;2022-10-16T06:33:52;17.52;;;9.07;;
68192;SDS011;55012;47.562;18.414;2022-10-16T06:36:18;17.27;;;8.90;;
68192;SDS011;55012;47.562;18.414;2022-10-16T06:38:43;19.42;;;10.90;;
68192;SDS011;55012;47.562;18.414;2022-10-16T06:41:11;15.98;;;9.55;;
68192;SDS011;55012;47.562;18.414;2022-10-16T06:43:41;24.27;;;12.27;;
68192;SDS011;55012;47.562;18.414;2022-10-16T06:46:09;19.95;;;10.57;;
68192;SDS011;55012;47.562;18.414;2022-10-16T06:48:36;16.08;;;8.60;;
68192;SDS011;55012;47.562;18.414;2022-10-16T06:51:03;19.13;;;9.90;;
68192;SDS011;55012;47.562;18.414;2022-10-16T06:53:31;23.40;;;12.48;;
68192;SDS011;55012;47.562;18.414;2022-10-16T06:55:58;16.98;;;9.35;;
68192;SDS011;55012;47.562;18.414;2022-10-16T06:58:35;17.40;;;9.18;;
68192;SDS011;55012;47.562;18.414;2022-10-16T07:01:01;18.73;;;9.68;;
68192;SDS011;55012;47.562;18.414;2022-10-16T07:03:27;17.63;;;9.25;;
68192;SDS011;55012;47.562;18.414;2022-10-16T07:05:52;19.88;;;10.23;;
68192;SDS011;55012;47.562;18.414;2022-10-16T07:08:18;21.45;;;10.85;;
68192;SDS011;55012;47.562;18.414;2022-10-16T07:10:43;20.60;;;11.05;;
68192;SDS011;55012;47.562;18.414;2022-10-16T07:13:09;16.02;;;9.70;;
68192;SDS011;55012;47.562;18.414;2022-10-16T07:15:38;21.38;;;10.63;;
68192;SDS011;55012;47.562;18.414;2022-10-16T07:18:03;19.38;;;10.57;;
68192;SDS011;55012;47.562;18.414;2022-10-16T07:20:29;20.80;;;11.63;;
68192;SDS011;55012;47.562;18.414;2022-10-16T07:22:54;27.63;;;12.77;;
68192;SDS011;55012;47.562;18.414;2022-10-16T07:25:19;31.63;;;14.95;;
68192;SDS011;55012;47.562;18.414;2022-10-16T07:27:45;26.70;;;14.70;;
68192;SDS011;55012;47.562;18.414;2022-10-16T07:30:10;22.40;;;11.70;;
68192;SDS011;55012;47.562;18.414;2022-10-16T07:32:36;17.75;;;10.32;;
68192;SDS011;55012;47.562;18.414;2022-10-16T07:35:01;15.88;;;9.50;;
68192;SDS011;55012;47.562;18.414;2022-10-16T07:37:27;15.85;;;9.20;;
68192;SDS011;55012;47.562;18.414;2022-10-16T07:39:52;22.20;;;11.13;;
68192;SDS011;55012;47.562;18.414;2022-10-16T07:42:18;19.63;;;11.02;;
68192;SDS011;55012;47.562;18.414;2022-10-16T07:44:45;20.40;;;10.90;;
68192;SDS011;55012;47.562;18.414;2022-10-16T07:47:10;18.85;;;10.95;;
68192;SDS011;55012;47.562;18.414;2022-10-16T07:49:36;18.58;;;10.48;;
68192;SDS011;55012;47.562;18.414;2022-10-16T07:52:01;18.48;;;9.45;;
68192;SDS011;55012;47.562;18.414;2022-10-16T07:54:27;19.73;;;10.10;;
68192;SDS011;55012;47.562;18.414;2022-10-16T07:56:52;17.65;;;9.90;;
68192;SDS011;55012;47.562;18.414;2022-10-16T07:59:17;19.08;;;9.90;;
68192;SDS011;55012;47.562;18.414;2022-10-16T08:01:43;20.67;;;10.15;;
68192;SDS011;55012;47.562;18.414;2022-10-16T08:04:09;18.50;;;10.70;;
68192;SDS011;55012;47.562;18.414;2022-10-16T08:06:38;19.52;;;10.48;;
68192;SDS011;55012;47.562;18.414;2022-10-16T08:09:05;28.75;;;12.65;;
68192;SDS011;55012;47.562;18.414;2022-10-16T08:11:32;38.60;;;17.08;;
68192;SDS011;55012;47.562;18.414;2022-10-16T08:13:58;36.50;;;14.85;;
68192;SDS011;55012;47.562;18.414;2022-10-16T08:16:24;42.55;;;17.23;;
68192;SDS011;55012;47.562;18.414;2022-10-16T08:18:49;33.83;;;13.38;;
68192;SDS011;55012;47.562;18.414;2022-10-16T08:21:17;28.00;;;12.10;;
68192;SDS011;55012;47.562;18.414;2022-10-16T08:23:44;28.65;;;12.02;;
68192;SDS011;55012;47.562;18.414;2022-10-16T08:26:10;30.50;;;13.40;;
68192;SDS011;55012;47.562;18.414;2022-10-16T08:28:36;29.58;;;14.93;;
68192;SDS011;55012;47.562;18.414;2022-10-16T08:31:05;33.80;;;14.52;;
68192;SDS011;55012;47.562;18.414;2022-10-16T08:33:35;64.60;;;27.38;;
68192;SDS011;55012;47.562;18.414;2022-10-16T08:36:01;25.30;;;13.15;;
68192;SDS011;55012;47.562;18.414;2022-10-16T08:38:27;25.60;;;13.57;;
68192;SDS011;55012;47.562;18.414;2022-10-16T08:40:53;20.70;;;11.68;;
68192;SDS011;55012;47.562;18.414;2022-10-16T08:46:04;17.77;;;10.38;;
68192;SDS011;55012;47.562;18.414;2022-10-16T08:48:58;19.08;;;10.18;;
68192;SDS011;55012;47.562;18.414;2022-10-16T08:53:59;20.60;;;10.00;;
68192;SDS011;55012;47.562;18.414;2022-10-16T08:56:28;16.75;;;10.32;;
68192;SDS011;55012;47.562;18.414;2022-10-16T08:58:53;16.65;;;10.32;;
68192;SDS011;55012;47.562;18.414;2022-10-16T09:01:20;18.58;;;10.70;;
68192;SDS011;55012;47.562;18.414;2022-10-16T09:06:37;18.23;;;10.30;;
68192;SDS011;55012;47.562;18.414;2022-10-16T09:25:28;19.25;;;7.22;;
68192;SDS011;55012;47.562;18.414;2022-10-16T09:27:54;13.38;;;7.22;;
68192;SDS011;55012;47.562;18.414;2022-10-16T09:30:20;14.10;;;7.68;;
68192;SDS011;55012;47.562;18.414;2022-10-16T09:32:50;12.15;;;7.10;;
68192;SDS011;55012;47.562;18.414;2022-10-16T09:35:19;11.90;;;7.55;;
68192;SDS011;55012;47.562;18.414;2022-10-16T09:37:49;10.80;;;6.93;;
68192;SDS011;55012;47.562;18.414;2022-10-16T09:40:24;13.73;;;6.85;;
68192;SDS011;55012;47.562;18.414;2022-10-16T09:42:50;14.88;;;7.13;;
68192;SDS011;55012;47.562;18.414;2022-10-16T09:45:23;12.55;;;7.47;;
68192;SDS011;55012;47.562;18.414;2022-10-16T09:47:49;12.30;;;7.10;;
68192;SDS011;55012;47.562;18.414;2022-10-16T09:50:25;10.73;;;7.05;;
68192;SDS011;55012;47.562;18.414;2022-10-16T09:53:11;12.70;;;7.68;;
68192;SDS011;55012;47.562;18.414;2022-10-16T09:55:51;12.65;;;7.40;;
68192;SDS011;55012;47.562;18.414;2022-10-16T09:58:21;11.23;;;7.30;;
68192;SDS011;55012;47.562;18.414;2022-10-16T10:00:48;12.60;;;7.70;;
68192;SDS011;55012;47.562;18.414;2022-10-16T10:06:05;13.70;;;9.10;;
68192;SDS011;55012;47.562;18.414;2022-10-16T10:08:56;13.00;;;8.65;;
68192;SDS011;55012;47.562;18.414;2022-10-16T10:11:40;17.15;;;8.88;;
68192;SDS011;55012;47.562;18.414;2022-10-16T10:19:30;15.82;;;9.63;;
68192;SDS011;55012;47.562;18.414;2022-10-16T10:22:15;14.93;;;9.82;;
68192;SDS011;55012;47.562;18.414;2022-10-16T10:28:03;13.77;;;9.38;;
68192;SDS011;55012;47.562;18.414;2022-10-16T10:43:50;16.40;;;9.23;;
68192;SDS011;55012;47.562;18.414;2022-10-16T10:46:34;18.42;;;9.32;;
68192;SDS011;55012;47.562;18.414;2022-10-16T11:02:30;14.20;;;8.77;;
68192;SDS011;55012;47.562;18.414;2022-10-16T11:05:15;19.08;;;9.20;;
68192;SDS011;55012;47.562;18.414;2022-10-16T11:07:58;14.68;;;8.68;;
68192;SDS011;55012;47.562;18.414;2022-10-16T11:10:28;14.98;;;9.20;;
68192;SDS011;55012;47.562;18.414;2022-10-16T11:13:11;17.42;;;9.35;;
68192;SDS011;55012;47.562;18.414;2022-10-16T11:15:45;15.43;;;10.20;;
68192;SDS011;55012;47.562;18.414;2022-10-16T11:18:16;15.13;;;8.98;;
68192;SDS011;55012;47.562;18.414;2022-10-16T11:20:49;14.75;;;8.80;;
68192;SDS011;55012;47.562;18.414;2022-10-16T11:23:28;14.65;;;9.00;;
68192;SDS011;55012;47.562;18.414;2022-10-16T11:26:04;15.10;;;9.23;;
68192;SDS011;55012;47.562;18.414;2022-10-16T11:28:42;17.58;;;9.23;;
68192;SDS011;55012;47.562;18.414;2022-10-16T11:31:32;15.10;;;8.52;;
68192;SDS011;55012;47.562;18.414;2022-10-16T11:34:24;13.98;;;8.85;;
68192;SDS011;55012;47.562;18.414;2022-10-16T11:36:57;19.88;;;8.23;;
68192;SDS011;55012;47.562;18.414;2022-10-16T11:39:36;17.30;;;9.88;;
68192;SDS011;55012;47.562;18.414;2022-10-16T11:42:11;17.67;;;9.60;;
68192;SDS011;55012;47.562;18.414;2022-10-16T11:44:50;15.50;;;9.23;;
68192;SDS011;55012;47.562;18.414;2022-10-16T11:52:44;15.07;;;8.82;;
68192;SDS011;55012;47.562;18.414;2022-10-16T11:55:43;14.77;;;8.60;;
68192;SDS011;55012;47.562;18.414;2022-10-16T12:09:20;15.25;;;8.85;;
68192;SDS011;55012;47.562;18.414;2022-10-16T12:11:49;15.52;;;8.35;;
68192;SDS011;55012;47.562;18.414;2022-10-16T12:17:00;14.18;;;8.13;;
68192;SDS011;55012;47.562;18.414;2022-10-16T12:19:30;15.45;;;8.75;;
68192;SDS011;55012;47.562;18.414;2022-10-16T12:21:57;14.98;;;8.10;;
68192;SDS011;55012;47.562;18.414;2022-10-16T12:24:32;14.15;;;8.45;;
68192;SDS011;55012;47.562;18.414;2022-10-16T12:27:03;13.32;;;8.35;;
68192;SDS011;55012;47.562;18.414;2022-10-16T12:29:48;13.23;;;8.45;;
68192;SDS011;55012;47.562;18.414;2022-10-16T12:35:03;16.38;;;8.60;;
68192;SDS011;55012;47.562;18.414;2022-10-16T12:37:34;13.10;;;8.40;;
68192;SDS011;55012;47.562;18.414;2022-10-16T12:42:49;15.50;;;8.50;;
68192;SDS011;55012;47.562;18.414;2022-10-16T12:47:56;14.40;;;8.90;;
68192;SDS011;55012;47.562;18.414;2022-10-16T12:53:19;12.75;;;8.15;;
68192;SDS011;55012;47.562;18.414;2022-10-16T12:58:49;17.13;;;8.45;;
68192;SDS011;55012;47.562;18.414;2022-10-16T13:18:22;12.98;;;8.40;;
68192;SDS011;55012;47.562;18.414;2022-10-16T13:21:24;14.20;;;8.18;;
68192;SDS011;55012;47.562;18.414;2022-10-16T13:29:30;13.48;;;8.20;;
68192;SDS011;55012;47.562;18.414;2022-10-16T13:31:57;12.27;;;8.20;;
68192;SDS011;55012;47.562;18.414;2022-10-16T13:34:25;15.77;;;8.63;;
68192;SDS011;55012;47.562;18.414;2022-10-16T13:36:52;15.60;;;8.48;;
68192;SDS011;55012;47.562;18.414;2022-10-16T13:39:25;14.85;;;8.63;;
68192;SDS011;55012;47.562;18.414;2022-10-16T13:44:31;12.32;;;8.23;;
68192;SDS011;55012;47.562;18.414;2022-10-16T13:47:04;13.57;;;8.38;;
68192;SDS011;55012;47.562;18.414;2022-10-16T13:49:30;14.77;;;8.82;;
68192;SDS011;55012;47.562;18.414;2022-10-16T13:51:56;13.35;;;8.30;;
68192;SDS011;55012;47.562;18.414;2022-10-16T13:54:23;14.82;;;8.48;;
68192;SDS011;55012;47.562;18.414;2022-10-16T13:56:50;12.27;;;7.93;;
68192;SDS011;55012;47.562;18.414;2022-10-16T13:59:26;13.38;;;8.73;;
68192;SDS011;55012;47.562;18.414;2022-10-16T14:01:58;12.73;;;8.25;;
68192;SDS011;55012;47.562;18.414;2022-10-16T14:04:31;14.50;;;8.85;;
68192;SDS011;55012;47.562;18.414;2022-10-16T14:06:58;12.15;;;8.20;;
68192;SDS011;55012;47.562;18.414;2022-10-16T14:09:24;16.95;;;8.10;;
68192;SDS011;55012;47.562;18.414;2022-10-16T14:12:03;13.23;;;8.48;;
68192;SDS011;55012;47.562;18.414;2022-10-16T14:14:46;13.88;;;8.45;;
68192;SDS011;55012;47.562;18.414;2022-10-16T14:17:32;12.73;;;8.52;;
68192;SDS011;55012;47.562;18.414;2022-10-16T14:20:00;13.95;;;8.73;;
68192;SDS011;55012;47.562;18.414;2022-10-16T14:22:39;19.23;;;9.18;;
68192;SDS011;55012;47.562;18.414;2022-10-16T14:30:31;12.23;;;8.00;;
68192;SDS011;55012;47.562;18.414;2022-10-16T14:33:01;13.57;;;7.80;;
68192;SDS011;55012;47.562;18.414;2022-10-16T14:35:35;12.13;;;8.05;;
68192;SDS011;55012;47.562;18.414;2022-10-16T14:38:05;13.32;;;7.90;;
68192;SDS011;55012;47.562;18.414;2022-10-16T14:40:45;13.50;;;7.80;;
68192;SDS011;55012;47.562;18.414;2022-10-16T14:43:21;14.98;;;7.47;;
68192;SDS011;55012;47.562;18.414;2022-10-16T14:45:52;16.38;;;7.35;;
68192;SDS011;55012;47.562;18.414;2022-10-16T14:48:19;12.10;;;7.05;;
68192;SDS011;55012;47.562;18.414;2022-10-16T14:50:45;13.10;;;7.40;;
68192;SDS011;55012;47.562;18.414;2022-10-16T14:53:11;11.30;;;7.03;;
68192;SDS011;55012;47.562;18.414;2022-10-16T14:55:38;9.50;;;6.90;;
68192;SDS011;55012;47.562;18.414;2022-10-16T14:58:05;10.90;;;6.95;;
68192;SDS011;55012;47.562;18.414;2022-10-16T15:00:30;10.70;;;6.78;;
68192;SDS011;55012;47.562;18.414;2022-10-16T15:02:56;10.10;;;6.80;;
68192;SDS011;55012;47.562;18.414;2022-10-16T15:05:23;12.35;;;6.78;;
68192;SDS011;55012;47.562;18.414;2022-10-16T15:07:51;10.32;;;7.13;;
68192;SDS011;55012;47.562;18.414;2022-10-16T15:10:18;12.55;;;7.20;;
68192;SDS011;55012;47.562;18.414;2022-10-16T15:12:46;10.77;;;7.10;;
68192;SDS011;55012;47.562;18.414;2022-10-16T15:17:51;13.00;;;7.80;;
68192;SDS011;55012;47.562;18.414;2022-10-16T15:20:19;13.98;;;7.75;;
68192;SDS011;55012;47.562;18.414;2022-10-16T15:22:44;16.95;;;7.90;;
68192;SDS011;55012;47.562;18.414;2022-10-16T15:28:00;11.07;;;7.97;;
68192;SDS011;55012;47.562;18.414;2022-10-16T15:30:27;12.70;;;8.13;;
68192;SDS011;55012;47.562;18.414;2022-10-16T15:32:53;12.40;;;8.30;;
68192;SDS011;55012;47.562;18.414;2022-10-16T15:35:18;13.18;;;8.95;;
68192;SDS011;55012;47.562;18.414;2022-10-16T15:37:45;13.30;;;9.00;;
68192;SDS011;55012;47.562;18.414;2022-10-16T15:40:11;16.92;;;10.45;;
68192;SDS011;55012;47.562;18.414;2022-10-16T15:42:37;19.33;;;12.38;;
68192;SDS011;55012;47.562;18.414;2022-10-16T15:45:02;23.58;;;10.45;;
68192;SDS011;55012;47.562;18.414;2022-10-16T15:47:29;19.25;;;10.05;;
68192;SDS011;55012;47.562;18.414;2022-10-16T15:49:55;19.80;;;10.32;;
68192;SDS011;55012;47.562;18.414;2022-10-16T15:52:20;19.23;;;10.30;;
68192;SDS011;55012;47.562;18.414;2022-10-16T15:54:46;17.65;;;10.20;;
68192;SDS011;55012;47.562;18.414;2022-10-16T15:57:11;16.60;;;10.68;;
68192;SDS011;55012;47.562;18.414;2022-10-16T15:59:36;18.65;;;11.68;;
68192;SDS011;55012;47.562;18.414;2022-10-16T16:02:02;22.75;;;12.70;;
68192;SDS011;55012;47.562;18.414;2022-10-16T16:04:31;21.02;;;11.65;;
68192;SDS011;55012;47.562;18.414;2022-10-16T16:06:56;22.60;;;13.23;;
68192;SDS011;55012;47.562;18.414;2022-10-16T16:09:22;19.25;;;11.68;;
68192;SDS011;55012;47.562;18.414;2022-10-16T16:11:47;21.25;;;12.25;;
68192;SDS011;55012;47.562;18.414;2022-10-16T16:14:14;19.77;;;10.63;;
68192;SDS011;55012;47.562;18.414;2022-10-16T16:16:40;20.92;;;11.05;;
68192;SDS011;55012;47.562;18.414;2022-10-16T16:19:07;18.80;;;11.10;;
68192;SDS011;55012;47.562;18.414;2022-10-16T16:21:33;17.63;;;10.30;;
68192;SDS011;55012;47.562;18.414;2022-10-16T16:23:59;19.27;;;10.57;;
68192;SDS011;55012;47.562;18.414;2022-10-16T16:26:25;17.83;;;10.70;;
68192;SDS011;55012;47.562;18.414;2022-10-16T16:28:56;19.92;;;10.68;;
68192;SDS011;55012;47.562;18.414;2022-10-16T16:31:28;16.95;;;10.65;;
68192;SDS011;55012;47.562;18.414;2022-10-16T16:33:55;18.75;;;10.98;;
68192;SDS011;55012;47.562;18.414;2022-10-16T16:36:21;23.92;;;13.02;;
68192;SDS011;55012;47.562;18.414;2022-10-16T16:38:47;26.33;;;13.43;;
68192;SDS011;55012;47.562;18.414;2022-10-16T16:43:43;24.27;;;12.85;;
68192;SDS011;55012;47.562;18.414;2022-10-16T16:46:08;26.35;;;13.10;;
68192;SDS011;55012;47.562;18.414;2022-10-16T16:48:34;25.67;;;15.02;;
68192;SDS011;55012;47.562;18.414;2022-10-16T16:51:04;27.52;;;15.85;;
68192;SDS011;55012;47.562;18.414;2022-10-16T16:53:41;32.70;;;17.50;;
68192;SDS011;55012;47.562;18.414;2022-10-16T16:56:07;35.05;;;19.70;;
68192;SDS011;55012;47.562;18.414;2022-10-16T16:58:33;22.48;;;13.57;;
68192;SDS011;55012;47.562;18.414;2022-10-16T17:00:59;18.90;;;10.30;;